sensor_id;sensor_type;location;lat;lon;timestamp;P1;durP1;ratioP1;P2;durP2;ratioP2
53056;SDS011;38940;50.096;4.012;2023-01-01T14:03:14;81.43;;;75.80;;
53056;SDS011;38940;50.096;4.012;2023-01-01T14:06:27;82.93;;;76.90;;
53056;SDS011;38940;50.096;4.012;2023-01-01T14:09:36;81.00;;;75.55;;
53056;SDS011;38940;50.096;4.012;2023-01-01T14:12:20;72.32;;;67.25;;
53056;SDS011;38940;50.096;4.012;2023-01-01T14:14:57;70.70;;;65.90;;
53056;SDS011;38940;50.096;4.012;2023-01-01T14:17:23;68.50;;;63.33;;
53056;SDS011;38940;50.096;4.012;2023-01-01T14:19:53;70.30;;;65.60;;
53056;SDS011;38940;50.096;4.012;2023-01-01T14:22:21;69.85;;;65.22;;
53056;SDS011;38940;50.096;4.012;2023-01-01T14:28:01;75.70;;;70.65;;
53056;SDS011;38940;50.096;4.012;2023-01-01T14:31:05;73.53;;;68.47;;
53056;SDS011;38940;50.096;4.012;2023-01-01T14:39:49;63.92;;;59.22;;
53056;SDS011;38940;50.096;4.012;2023-01-01T14:42:41;59.25;;;55.08;;
53056;SDS011;38940;50.096;4.012;2023-01-01T14:45:46;64.15;;;59.53;;
53056;SDS011;38940;50.096;4.012;2023-01-01T14:58:10;61.42;;;56.80;;
53056;SDS011;38940;50.096;4.012;2023-01-01T15:01:19;65.20;;;60.97;;
53056;SDS011;38940;50.096;4.012;2023-01-01T15:47:36;81.75;;;76.05;;
53056;SDS011;38940;50.096;4.012;2023-01-01T15:57:10;85.18;;;79.10;;
53056;SDS011;38940;50.096;4.012;2023-01-01T15:59:52;88.20;;;82.03;;
53056;SDS011;38940;50.096;4.012;2023-01-01T16:14:57;140.98;;;131.68;;
53056;SDS011;38940;50.096;4.012;2023-01-01T16:21:24;87.38;;;81.82;;
53056;SDS011;38940;50.096;4.012;2023-01-01T16:23:53;109.03;;;102.10;;
53056;SDS011;38940;50.096;4.012;2023-01-01T16:26:59;114.38;;;107.10;;
53056;SDS011;38940;50.096;4.012;2023-01-01T16:33:13;109.47;;;102.53;;
53056;SDS011;38940;50.096;4.012;2023-01-01T16:35:39;125.88;;;117.88;;
53056;SDS011;38940;50.096;4.012;2023-01-01T16:38:06;108.32;;;101.45;;
53056;SDS011;38940;50.096;4.012;2023-01-01T16:40:32;106.45;;;99.70;;
53056;SDS011;38940;50.096;4.012;2023-01-01T16:43:04;116.90;;;109.40;;
53056;SDS011;38940;50.096;4.012;2023-01-01T16:45:33;112.00;;;104.90;;
53056;SDS011;38940;50.096;4.012;2023-01-01T16:48:00;98.65;;;92.38;;
53056;SDS011;38940;50.096;4.012;2023-01-01T16:50:29;109.60;;;102.63;;
53056;SDS011;38940;50.096;4.012;2023-01-01T16:52:57;111.43;;;104.32;;
53056;SDS011;38940;50.096;4.012;2023-01-01T16:58:35;112.07;;;104.97;;
53056;SDS011;38940;50.096;4.012;2023-01-01T17:04:27;117.00;;;109.57;;
53056;SDS011;38940;50.096;4.012;2023-01-01T17:10:14;111.15;;;104.05;;
53056;SDS011;38940;50.096;4.012;2023-01-01T17:16:02;93.30;;;87.35;;
53056;SDS011;38940;50.096;4.012;2023-01-01T17:18:53;120.72;;;113.03;;
53056;SDS011;38940;50.096;4.012;2023-01-01T17:22:05;126.78;;;118.68;;
53056;SDS011;38940;50.096;4.012;2023-01-01T17:25:08;126.45;;;118.38;;
53056;SDS011;38940;50.096;4.012;2023-01-01T17:27:34;117.63;;;110.10;;
53056;SDS011;38940;50.096;4.012;2023-01-01T17:30:01;124.90;;;116.95;;
53056;SDS011;38940;50.096;4.012;2023-01-01T17:32:27;117.93;;;110.43;;
53056;SDS011;38940;50.096;4.012;2023-01-01T17:35:01;98.93;;;92.63;;
53056;SDS011;38940;50.096;4.012;2023-01-01T17:37:27;99.68;;;93.38;;
53056;SDS011;38940;50.096;4.012;2023-01-01T17:40:18;84.05;;;78.72;;
53056;SDS011;38940;50.096;4.012;2023-01-01T17:42:46;104.97;;;98.30;;
53056;SDS011;38940;50.096;4.012;2023-01-01T17:45:13;115.85;;;108.47;;
53056;SDS011;38940;50.096;4.012;2023-01-01T17:47:39;111.80;;;104.70;;
53056;SDS011;38940;50.096;4.012;2023-01-01T17:50:28;97.80;;;91.60;;
53056;SDS011;38940;50.096;4.012;2023-01-01T17:53:14;112.97;;;105.78;;
53056;SDS011;38940;50.096;4.012;2023-01-01T17:55:40;107.10;;;100.30;;
53056;SDS011;38940;50.096;4.012;2023-01-01T17:58:06;132.18;;;123.72;;
53056;SDS011;38940;50.096;4.012;2023-01-01T18:00:42;118.57;;;111.03;;
53056;SDS011;38940;50.096;4.012;2023-01-01T18:03:18;127.03;;;118.90;;
53056;SDS011;38940;50.096;4.012;2023-01-01T18:06:22;125.40;;;117.38;;
53056;SDS011;38940;50.096;4.012;2023-01-01T18:08:59;133.93;;;125.20;;
53056;SDS011;38940;50.096;4.012;2023-01-01T18:15:26;123.07;;;115.22;;
53056;SDS011;38940;50.096;4.012;2023-01-01T18:24:30;133.18;;;124.68;;
53056;SDS011;38940;50.096;4.012;2023-01-01T18:27:39;133.38;;;124.82;;
53056;SDS011;38940;50.096;4.012;2023-01-01T18:36:25;126.25;;;118.18;;
53056;SDS011;38940;50.096;4.012;2023-01-01T18:38:58;123.65;;;115.75;;
53056;SDS011;38940;50.096;4.012;2023-01-01T18:44:25;125.97;;;117.90;;
53056;SDS011;38940;50.096;4.012;2023-01-01T18:46:54;118.82;;;111.28;;
53056;SDS011;38940;50.096;4.012;2023-01-01T18:49:48;129.63;;;121.35;;
53056;SDS011;38940;50.096;4.012;2023-01-01T18:52:30;123.95;;;116.05;;
53056;SDS011;38940;50.096;4.012;2023-01-01T19:00:28;109.50;;;102.50;;
53056;SDS011;38940;50.096;4.012;2023-01-01T19:03:02;106.63;;;99.88;;
53056;SDS011;38940;50.096;4.012;2023-01-01T19:05:43;122.40;;;114.63;;
53056;SDS011;38940;50.096;4.012;2023-01-01T19:14:32;113.75;;;106.50;;
53056;SDS011;38940;50.096;4.012;2023-01-01T19:17:34;120.05;;;112.40;;
53056;SDS011;38940;50.096;4.012;2023-01-01T19:20:00;96.68;;;90.53;;
53056;SDS011;38940;50.096;4.012;2023-01-01T19:22:28;125.28;;;117.28;;
53056;SDS011;38940;50.096;4.012;2023-01-01T19:34:13;120.85;;;113.13;;
53056;SDS011;38940;50.096;4.012;2023-01-01T19:46:18;121.85;;;114.07;;
53056;SDS011;38940;50.096;4.012;2023-01-01T19:48:44;125.10;;;117.07;;
53056;SDS011;38940;50.096;4.012;2023-01-01T19:51:52;143.23;;;133.93;;
53056;SDS011;38940;50.096;4.012;2023-01-01T20:00:49;142.75;;;133.50;;
53056;SDS011;38940;50.096;4.012;2023-01-01T20:06:57;125.72;;;117.68;;
53056;SDS011;38940;50.096;4.012;2023-01-01T20:09:26;133.05;;;124.53;;
53056;SDS011;38940;50.096;4.012;2023-01-01T20:21:46;132.10;;;123.63;;
53056;SDS011;38940;50.096;4.012;2023-01-01T20:27:34;131.70;;;123.27;;
53056;SDS011;38940;50.096;4.012;2023-01-01T20:33:23;128.48;;;120.28;;
53056;SDS011;38940;50.096;4.012;2023-01-01T20:35:52;137.88;;;128.98;;
53056;SDS011;38940;50.096;4.012;2023-01-01T20:38:37;132.00;;;123.55;;
53056;SDS011;38940;50.096;4.012;2023-01-01T20:41:04;138.90;;;129.95;;
53056;SDS011;38940;50.096;4.012;2023-01-01T20:43:51;122.13;;;114.32;;
53056;SDS011;38940;50.096;4.012;2023-01-01T20:46:18;124.40;;;116.50;;
53056;SDS011;38940;50.096;4.012;2023-01-01T20:48:45;118.60;;;111.05;;
53056;SDS011;38940;50.096;4.012;2023-01-01T20:51:36;118.57;;;111.03;;
53056;SDS011;38940;50.096;4.012;2023-01-01T20:54:05;116.20;;;108.80;;
53056;SDS011;38940;50.096;4.012;2023-01-01T20:56:53;122.57;;;114.75;;
53056;SDS011;38940;50.096;4.012;2023-01-01T21:02:27;122.32;;;114.53;;
53056;SDS011;38940;50.096;4.012;2023-01-01T21:05:32;121.22;;;113.50;;
53056;SDS011;38940;50.096;4.012;2023-01-01T21:08:04;100.22;;;93.85;;
53056;SDS011;38940;50.096;4.012;2023-01-01T21:13:42;111.85;;;104.75;;
53056;SDS011;38940;50.096;4.012;2023-01-01T21:16:24;122.25;;;114.45;;
53056;SDS011;38940;50.096;4.012;2023-01-01T21:19:28;92.47;;;86.60;;
53056;SDS011;38940;50.096;4.012;2023-01-01T21:21:57;77.53;;;72.63;;
53056;SDS011;38940;50.096;4.012;2023-01-01T21:24:27;96.03;;;89.93;;
53056;SDS011;38940;50.096;4.012;2023-01-01T21:27:13;93.25;;;87.35;;
53056;SDS011;38940;50.096;4.012;2023-01-01T21:29:58;75.82;;;70.97;;
53056;SDS011;38940;50.096;4.012;2023-01-01T21:35:33;66.78;;;62.55;;
53056;SDS011;38940;50.096;4.012;2023-01-01T21:38:37;58.45;;;54.75;;
53056;SDS011;38940;50.096;4.012;2023-01-01T21:41:27;62.53;;;58.55;;
53056;SDS011;38940;50.096;4.012;2023-01-01T21:47:01;65.35;;;61.20;;
53056;SDS011;38940;50.096;4.012;2023-01-01T21:49:33;63.42;;;59.42;;
53056;SDS011;38940;50.096;4.012;2023-01-01T21:52:21;50.70;;;47.50;;
53056;SDS011;38940;50.096;4.012;2023-01-01T21:54:49;55.15;;;51.65;;
53056;SDS011;38940;50.096;4.012;2023-01-01T21:57:17;57.38;;;53.75;;
53056;SDS011;38940;50.096;4.012;2023-01-01T21:59:47;67.70;;;63.40;;
53056;SDS011;38940;50.096;4.012;2023-01-01T22:02:23;99.57;;;93.28;;
53056;SDS011;38940;50.096;4.012;2023-01-01T22:05:14;83.93;;;78.63;;
53056;SDS011;38940;50.096;4.012;2023-01-01T22:07:51;97.30;;;91.00;;
53056;SDS011;38940;50.096;4.012;2023-01-01T22:10:38;83.78;;;78.47;;
53056;SDS011;38940;50.096;4.012;2023-01-01T22:13:16;96.28;;;90.18;;
53056;SDS011;38940;50.096;4.012;2023-01-01T22:15:58;78.28;;;73.30;;
53056;SDS011;38940;50.096;4.012;2023-01-01T22:18:35;70.78;;;66.25;;
53056;SDS011;38940;50.096;4.012;2023-01-01T22:21:13;73.88;;;69.20;;
53056;SDS011;38940;50.096;4.012;2023-01-01T22:27:27;96.85;;;90.70;;
53056;SDS011;38940;50.096;4.012;2023-01-01T22:30:00;85.35;;;79.95;;
53056;SDS011;38940;50.096;4.012;2023-01-01T22:32:33;96.45;;;90.35;;
53056;SDS011;38940;50.096;4.012;2023-01-01T22:35:10;69.35;;;64.95;;
53056;SDS011;38940;50.096;4.012;2023-01-01T22:37:54;93.78;;;87.82;;
53056;SDS011;38940;50.096;4.012;2023-01-01T22:40:34;89.85;;;84.15;;
53056;SDS011;38940;50.096;4.012;2023-01-01T22:43:12;99.15;;;92.85;;
53056;SDS011;38940;50.096;4.012;2023-01-01T22:45:41;110.05;;;103.05;;
53056;SDS011;38940;50.096;4.012;2023-01-01T22:48:15;82.95;;;77.68;;
53056;SDS011;38940;50.096;4.012;2023-01-01T22:50:56;103.53;;;96.93;;
53056;SDS011;38940;50.096;4.012;2023-01-01T22:53:28;97.65;;;91.47;;
53056;SDS011;38940;50.096;4.012;2023-01-01T22:55:55;88.10;;;82.50;;
53056;SDS011;38940;50.096;4.012;2023-01-01T22:58:23;96.78;;;90.65;;
53056;SDS011;38940;50.096;4.012;2023-01-01T23:00:49;89.82;;;84.10;;
53056;SDS011;38940;50.096;4.012;2023-01-01T23:03:18;87.13;;;81.60;;
53056;SDS011;38940;50.096;4.012;2023-01-01T23:05:45;79.90;;;74.82;;
53056;SDS011;38940;50.096;4.012;2023-01-01T23:08:34;53.80;;;50.40;;
53056;SDS011;38940;50.096;4.012;2023-01-01T23:11:40;69.10;;;64.70;;
53056;SDS011;38940;50.096;4.012;2023-01-01T23:23:02;80.85;;;75.72;;
53056;SDS011;38940;50.096;4.012;2023-01-01T23:25:34;85.55;;;80.13;;
53056;SDS011;38940;50.096;4.012;2023-01-01T23:28:05;84.50;;;79.15;;
53056;SDS011;38940;50.096;4.012;2023-01-01T23:30:39;95.10;;;89.07;;
53056;SDS011;38940;50.096;4.012;2023-01-01T23:33:08;82.17;;;76.97;;
53056;SDS011;38940;50.096;4.012;2023-01-01T23:35:40;85.07;;;79.68;;
53056;SDS011;38940;50.096;4.012;2023-01-01T23:38:07;91.13;;;85.35;;
53056;SDS011;38940;50.096;4.012;2023-01-01T23:40:37;112.50;;;105.32;;
53056;SDS011;38940;50.096;4.012;2023-01-01T23:43:03;82.00;;;76.80;;
53056;SDS011;38940;50.096;4.012;2023-01-01T23:45:29;81.45;;;76.30;;
53056;SDS011;38940;50.096;4.012;2023-01-01T23:47:55;101.47;;;95.03;;
53056;SDS011;38940;50.096;4.012;2023-01-01T23:50:22;72.07;;;67.50;;
53056;SDS011;38940;50.096;4.012;2023-01-01T23:52:49;108.13;;;101.25;;
53056;SDS011;38940;50.096;4.012;2023-01-01T23:55:17;109.22;;;102.28;;
53056;SDS011;38940;50.096;4.012;2023-01-01T23:57:44;78.68;;;73.68;;
